Time;durP1;ratioP1;P1;durP2;ratioP2;P2;SDS_P1;SDS_P2;PMS_P1;PMS_P2;Temp;Humidity;BMP_temperature;BMP_pressure;BME280_temperature;BME280_humidity;BME280_pressure;Samples;Min_cycle;Max_cycle;Signal;HPM_P1;HPM_P2
2023/09/18 00:03:07;;;;;;;5.25;4.85;;;18.20;99.90;;;19.01;94.86;97373.59;10442486;28;20221;-81
2023/09/18 00:08:12;;;;;;;5.78;5.25;;;18.20;99.90;;;18.98;95.48;97365.78;10440976;28;20213;-81
2023/09/18 00:13:15;;;;;;;6.35;5.32;;;18.10;99.90;;;19.01;95.18;97362.38;10442363;28;20563;-82
2023/09/18 00:18:20;;;;;;;4.97;4.68;;;18.00;99.90;;;18.86;96.35;97355.25;10441298;28;20311;-83
2023/09/18 00:23:26;;;;;;;5.20;4.80;;;18.00;99.90;;;18.68;96.49;97348.88;10443378;28;20244;-81
2023/09/18 00:28:29;;;;;;;4.90;4.50;;;17.80;99.90;;;18.50;98.31;97350.28;10444828;28;20844;-81
2023/09/18 00:33:32;;;;;;;5.78;5.22;;;17.70;99.90;;;18.52;98.22;97348.59;10443385;28;20664;-82
2023/09/18 00:38:37;;;;;;;6.00;5.50;;;17.70;99.90;;;18.60;97.70;97349.56;10442631;28;20303;-83
2023/09/18 00:43:40;;;;;;;5.80;5.30;;;17.80;99.90;;;18.59;97.94;97337.47;10441940;28;20220;-81
2023/09/18 00:48:44;;;;;;;6.03;5.47;;;17.80;99.90;;;18.68;97.65;97323.00;10439584;28;20222;-82
2023/09/18 00:53:50;;;;;;;5.80;5.38;;;17.80;99.90;;;18.65;97.43;97307.38;10443471;28;20236;-81
2023/09/18 00:58:54;;;;;;;5.32;4.90;;;17.80;99.90;;;18.62;97.86;97312.50;10448873;28;20748;-82
2023/09/18 01:03:59;;;;;;;6.28;5.78;;;17.80;99.90;;;18.50;97.82;97296.78;10445012;28;20232;-81
2023/09/18 01:09:11;;;;;;;5.70;5.20;;;17.70;99.90;;;18.63;97.68;97308.22;10435269;28;20965;-82
2023/09/18 01:14:21;;;;;;;5.82;5.32;;;17.80;99.90;;;18.68;97.64;97306.56;10437662;28;20225;-83
2023/09/18 01:19:41;;;;;;;5.28;4.90;;;17.80;99.90;;;18.62;97.60;97306.47;10436639;28;20237;-82
2023/09/18 01:24:48;;;;;;;5.88;5.38;;;17.80;99.90;;;18.64;97.57;97304.78;10434610;28;20244;-81
2023/09/18 01:29:53;;;;;;;5.32;4.93;;;17.80;99.90;;;18.65;97.59;97290.97;10438995;28;20234;-83
2023/09/18 01:35:00;;;;;;;6.30;5.22;;;17.80;99.90;;;18.62;97.76;97288.34;10438393;28;20213;-81
2023/09/18 01:40:07;;;;;;;5.22;4.82;;;17.70;99.90;;;18.56;98.54;97285.66;10437369;28;20329;-82
2023/09/18 01:45:11;;;;;;;5.18;4.78;;;17.80;99.90;;;18.58;98.69;97278.81;10436229;28;20262;-83
2023/09/18 01:50:14;;;;;;;5.85;5.35;;;17.80;99.90;;;18.76;98.60;97273.06;10430112;28;20225;-83
2023/09/18 01:55:19;;;;;;;7.30;6.60;;;18.00;99.90;;;18.89;97.62;97281.06;10432779;28;20232;-81
2023/09/18 02:00:23;;;;;;;6.05;5.25;;;18.10;99.90;;;18.84;97.91;97267.16;10440469;28;20230;-81
2023/09/18 02:05:27;;;;;;;5.38;4.97;;;18.00;99.90;;;18.85;97.83;97283.56;10431783;28;20222;-81
2023/09/18 02:10:32;;;;;;;5.80;5.30;;;18.00;99.90;;;18.81;97.97;97294.72;10431658;28;20795;-81
2023/09/18 02:15:39;;;;;;;6.13;5.63;;;18.00;99.90;;;18.91;97.27;97309.53;10443770;28;20258;-80
2023/09/18 02:20:44;;;;;;;5.78;5.38;;;18.10;99.90;;;19.27;94.37;97386.97;10439730;28;20227;-83
2023/09/18 02:25:57;;;;;;;5.95;5.28;;;18.30;99.90;;;18.97;96.30;97319.13;10436391;28;20228;-82
2023/09/18 02:31:00;;;;;;;5.65;5.20;;;18.20;99.90;;;19.10;95.52;97297.75;10435963;28;20229;-82
2023/09/18 02:36:04;;;;;;;5.90;5.25;;;18.40;99.90;;;19.16;97.94;97284.88;10429349;28;20225;-82
2023/09/18 02:41:08;;;;;;;6.03;5.50;;;18.50;99.90;;;18.89;99.67;97275.88;10431552;28;20233;-82
2023/09/18 02:46:12;;;;;;;5.65;5.18;;;18.30;99.90;;;18.84;100.00;97267.16;10434333;28;20225;-82
2023/09/18 02:51:15;;;;;;;5.93;5.43;;;18.20;99.90;;;19.07;99.97;97270.06;10457576;28;20265;-82
2023/09/18 02:56:20;;;;;;;7.20;5.85;;;18.30;99.90;;;18.70;100.00;97268.63;10429004;28;20306;-81
2023/09/18 03:01:23;;;;;;;6.32;5.82;;;18.00;99.90;;;18.68;100.00;97240.16;10429982;28;20233;-81
2023/09/18 03:06:27;;;;;;;6.28;5.75;;;18.10;99.90;;;18.49;100.00;97235.53;10432847;28;20298;-83
2023/09/18 03:11:31;;;;;;;6.80;5.78;;;18.00;99.90;;;18.59;100.00;97254.66;10425135;28;20235;-82
2023/09/18 03:16:37;;;;;;;6.45;5.25;;;18.10;99.90;;;18.73;100.00;97247.97;10432265;28;20229;-81
2023/09/18 03:21:40;;;;;;;5.60;5.10;;;18.20;99.90;;;18.84;100.00;97246.44;10433217;28;20255;-82
2023/09/18 03:26:45;;;;;;;6.00;5.50;;;18.30;99.90;;;19.02;100.00;97263.09;10425440;28;20226;-82
2023/09/18 03:31:48;;;;;;;5.90;5.40;;;18.40;99.90;;;19.00;100.00;97260.50;10430460;28;20237;-83
2023/09/18 03:36:52;;;;;;;5.72;5.32;;;18.20;99.90;;;18.99;100.00;97269.09;10430239;28;20486;-83
2023/09/18 03:41:56;;;;;;;7.03;5.78;;;18.20;99.90;;;18.87;100.00;97264.59;10433281;28;20746;-81
2023/09/18 03:46:59;;;;;;;6.82;5.53;;;18.10;99.90;;;18.74;100.00;97278.22;10427098;28;20225;-82
2023/09/18 03:52:03;;;;;;;6.85;5.47;;;18.00;99.90;;;18.69;100.00;97261.72;10429016;28;20298;-84
2023/09/18 03:57:08;;;;;;;6.20;5.60;;;17.90;99.90;;;18.70;100.00;97271.22;10433214;28;20229;-80
2023/09/18 04:02:11;;;;;;;6.20;5.50;;;17.90;99.90;;;18.76;100.00;97301.56;10430647;28;20782;-83
2023/09/18 04:07:16;;;;;;;6.65;5.65;;;17.90;99.90;;;18.79;100.00;97336.13;10429745;28;20639;-81
2023/09/18 04:12:21;;;;;;;6.00;5.40;;;17.90;99.90;;;18.84;100.00;97356.94;10433520;28;20236;-83
2023/09/18 04:17:24;;;;;;;6.50;5.53;;;18.00;99.90;;;18.84;100.00;97391.47;10432140;28;20236;-82
2023/09/18 04:22:27;;;;;;;6.82;5.60;;;18.00;99.90;;;18.79;100.00;97387.06;10435699;28;20229;-81
2023/09/18 04:27:32;;;;;;;6.75;5.90;;;18.10;99.90;;;18.77;100.00;97368.00;10434468;28;20221;-82
2023/09/18 04:32:36;;;;;;;5.80;5.30;;;18.10;99.90;;;18.83;100.00;97369.00;10432804;28;20229;-81
2023/09/18 04:37:40;;;;;;;5.35;4.95;;;18.10;99.90;;;18.95;100.00;97354.53;10428684;28;20709;-82
2023/09/18 04:42:44;;;;;;;5.95;5.03;;;18.20;99.90;;;19.01;100.00;97332.16;10437100;28;20228;-83
2023/09/18 04:47:48;;;;;;;6.32;4.72;;;18.30;99.90;;;19.10;100.00;97344.38;10445361;28;20784;-82
2023/09/18 04:52:52;;;;;;;5.07;4.63;;;18.40;99.90;;;19.21;100.00;97348.00;10443610;28;20230;-86
2023/09/18 04:57:58;;;;;;;6.85;5.38;;;18.50;99.90;;;19.27;100.00;97329.09;10453110;28;21016;-82
2023/09/18 05:03:03;;;;;;;5.45;4.95;;;18.50;99.90;;;19.19;99.18;97300.47;10437512;28;20221;-84
2023/09/18 05:08:08;;;;;;;5.03;4.63;;;18.40;99.90;;;19.12;99.66;97299.53;10439545;28;20320;-82
2023/09/18 05:13:13;;;;;;;6.43;5.30;;;18.40;99.90;;;19.07;99.84;97284.75;10440864;28;20253;-82
2023/09/18 05:18:16;;;;;;;5.22;4.47;;;18.30;99.90;;;19.07;99.85;97274.41;10427963;28;20278;-83
2023/09/18 05:23:20;;;;;;;7.95;5.43;;;18.30;99.90;;;19.07;99.01;97285.63;10433773;28;20331;-82
2023/09/18 05:28:24;;;;;;;6.50;5.80;;;18.20;99.90;;;18.93;100.00;97289.72;10437359;28;20287;-80
2023/09/18 05:33:28;;;;;;;5.15;4.72;;;18.10;99.90;;;18.99;99.64;97317.44;10427935;28;20226;-82
2023/09/18 05:38:31;;;;;;;5.55;5.13;;;18.20;99.90;;;19.15;99.98;97309.06;10424383;28;20240;-82
2023/09/18 05:43:36;;;;;;;6.28;5.68;;;18.40;99.90;;;19.27;99.31;97309.22;10435565;28;20229;-84
2023/09/18 05:48:39;;;;;;;5.60;5.00;;;18.50;99.90;;;19.27;99.01;97301.44;10440293;28;20226;-80
2023/09/18 05:53:43;;;;;;;5.45;4.95;;;18.50;99.90;;;19.43;98.87;97309.41;10440032;28;20222;-82
2023/09/18 05:58:48;;;;;;;5.35;4.45;;;18.60;99.90;;;19.66;97.67;97307.16;10445133;28;20643;-82
2023/09/18 06:03:51;;;;;;;5.43;4.25;;;18.90;99.90;;;19.86;97.15;97312.56;10429081;28;20229;-82
2023/09/18 06:08:54;;;;;;;6.70;4.70;;;19.10;99.90;;;20.07;96.36;97323.22;10425369;28;20235;-83
2023/09/18 06:13:59;;;;;;;5.88;5.25;;;19.30;99.90;;;20.26;94.68;97337.28;10432170;28;20248;-81
2023/09/18 06:19:02;;;;;;;7.38;5.60;;;19.30;99.90;;;20.18;95.06;97339.78;10432723;28;20230;-80
2023/09/18 06:24:07;;;;;;;5.70;5.20;;;19.30;99.90;;;20.05;96.07;97326.63;10455739;28;20283;-83
2023/09/18 06:29:11;;;;;;;6.43;5.30;;;19.30;99.90;;;20.16;96.55;97310.31;10459979;28;20282;-82
2023/09/18 06:34:15;;;;;;;6.25;4.38;;;19.40;99.90;;;20.55;95.06;97308.16;10448869;28;20761;-81
2023/09/18 06:39:20;;;;;;;5.25;4.68;;;19.80;99.90;;;20.74;91.86;97314.34;10445362;28;20229;-83
2023/09/18 06:44:24;;;;;;;5.57;5.00;;;20.00;99.90;;;20.90;91.18;97309.28;10462362;28;20283;-82
2023/09/18 06:49:28;;;;;;;6.15;4.75;;;20.00;99.90;;;20.87;90.92;97326.59;10445419;28;20228;-82
2023/09/18 06:54:31;;;;;;;5.93;4.50;;;20.00;99.90;;;20.86;91.62;97324.84;10443594;28;20271;-81
2023/09/18 06:59:36;;;;;;;5.05;4.65;;;20.00;99.90;;;20.92;91.97;97311.91;10439874;28;20737;-82
2023/09/18 07:04:44;;;;;;;5.75;4.47;;;20.10;99.90;;;21.09;90.48;97328.50;10453981;28;20231;-82
2023/09/18 07:09:49;;;;;;;5.88;4.70;;;20.20;99.90;;;21.19;91.55;97336.34;10458025;28;20698;-82
2023/09/18 07:15:09;;;;;;;6.90;4.72;;;20.30;99.90;;;21.18;91.68;97337.22;10456128;28;20258;-82
2023/09/18 07:20:14;;;;;;;8.98;5.28;;;20.40;99.90;;;21.44;90.30;97330.47;10455346;28;20717;-81
2023/09/18 07:25:18;;;;;;;5.43;4.57;;;20.60;99.90;;;21.61;88.82;97346.16;10450179;28;20787;-82
2023/09/18 07:30:26;;;;;;;6.32;4.65;;;20.70;99.90;;;21.77;88.41;97345.34;10458941;28;20220;-82
2023/09/18 07:35:30;;;;;;;4.88;4.15;;;20.90;99.90;;;22.01;86.78;97352.41;10450957;28;20712;-83
2023/09/18 07:40:34;;;;;;;5.53;4.55;;;21.10;99.90;;;22.26;84.09;97350.81;10453096;28;20233;-82
2023/09/18 07:45:40;;;;;;;5.63;4.50;;;21.40;99.90;;;22.46;83.20;97353.44;10451352;28;20235;-83
2023/09/18 07:50:45;;;;;;;7.35;4.38;;;21.60;99.90;;;22.64;81.18;97362.16;10462098;28;20621;-82
2023/09/18 07:55:57;;;;;;;5.15;4.07;;;21.70;99.90;;;22.62;82.08;97371.69;10464776;28;20274;-81
2023/09/18 08:01:05;;;;;;;6.53;3.70;;;21.70;99.90;;;22.86;79.64;97363.03;10459776;28;20233;-82
2023/09/18 08:06:09;;;;;;;5.35;3.20;;;21.90;99.90;;;23.33;77.00;97370.88;10465619;28;20225;-84
2023/09/18 08:11:12;;;;;;;7.15;3.65;;;22.30;99.90;;;23.40;74.78;97387.38;10466218;28;20334;-84
2023/09/18 08:16:17;;;;;;;5.50;2.55;;;22.40;99.90;;;23.51;72.12;97398.66;10464190;28;20249;-82
2023/09/18 08:21:21;;;;;;;5.38;2.70;;;22.50;99.90;;;23.68;69.66;97397.75;10465741;28;20231;-82
2023/09/18 08:26:25;;;;;;;3.88;2.58;;;22.70;99.90;;;23.73;68.31;97416.94;10457565;28;20229;-84
2023/09/18 08:31:31;;;;;;;5.00;2.47;;;23.10;99.90;;;23.56;68.44;97420.41;10466185;28;20233;-83
2023/09/18 08:36:35;;;;;;;7.90;2.90;;;23.00;99.90;;;23.50;69.48;97430.00;10474718;28;20229;-83
2023/09/18 08:41:43;;;;;;;5.15;2.25;;;22.70;99.90;;;23.36;68.37;97448.25;10466126;28;20233;-82
2023/09/18 08:46:48;;;;;;;4.68;2.35;;;22.70;99.90;;;23.22;69.50;97450.00;10463495;28;20707;-82
2023/09/18 08:51:53;;;;;;;5.38;2.50;;;22.40;99.90;;;23.34;69.15;97461.28;10458007;28;20252;-83
2023/09/18 08:56:56;;;;;;;6.75;2.53;;;22.50;99.90;;;23.29;69.30;97459.53;10468257;28;20230;-83
2023/09/18 09:02:01;;;;;;;6.03;2.20;;;22.30;99.90;;;23.22;69.59;97473.47;10469601;28;20245;-84
2023/09/18 09:07:06;;;;;;;5.38;2.10;;;22.40;99.90;;;23.04;70.34;97489.97;10462773;28;20228;-84
2023/09/18 09:12:10;;;;;;;3.20;2.35;;;22.30;99.90;;;22.82;71.70;97470.75;10474237;28;20237;-82
2023/09/18 09:17:19;;;;;;;3.50;2.30;;;22.00;99.90;;;22.66;72.00;97477.66;10475384;28;20288;-84
2023/09/18 09:22:23;;;;;;;8.07;2.40;;;21.80;99.90;;;22.63;73.08;97491.53;10473371;28;20252;-84
2023/09/18 09:27:26;;;;;;;4.22;2.30;;;21.80;99.90;;;22.52;75.10;97458.50;10465019;28;20233;-85
2023/09/18 09:32:33;;;;;;;4.35;2.13;;;21.70;99.90;;;22.61;73.58;97480.25;10471802;28;20243;-85
2023/09/18 09:37:37;;;;;;;5.22;2.00;;;21.80;99.90;;;22.49;74.17;97493.22;10477701;28;20240;-83
2023/09/18 09:42:41;;;;;;;3.75;1.88;;;21.50;99.90;;;22.21;79.13;97485.31;10471534;28;20232;-83
2023/09/18 09:47:46;;;;;;;3.97;2.30;;;21.50;99.90;;;21.52;90.05;97492.66;10475626;28;20225;-81
2023/09/18 09:52:51;;;;;;;4.25;2.25;;;21.00;99.90;;;21.00;92.90;97510.31;10447900;28;20253;-80
2023/09/18 09:57:59;;;;;;;5.97;2.40;;;20.40;99.90;;;20.54;96.93;97499.41;10457262;28;20249;-80
2023/09/18 10:03:08;;;;;;;4.82;2.00;;;20.00;99.90;;;20.38;99.86;97471.50;10456696;28;20282;-81
2023/09/18 10:08:15;;;;;;;3.47;2.05;;;19.80;99.90;;;20.20;100.00;97496.38;10453172;28;20227;-82
2023/09/18 10:13:25;;;;;;;4.65;2.40;;;19.70;99.90;;;20.13;100.00;97491.94;10456776;28;20232;-81
2023/09/18 10:18:40;;;;;;;4.60;2.85;;;19.60;99.90;;;20.21;100.00;97499.84;10464015;28;20233;-81
2023/09/18 10:24:00;;;;;;;6.25;2.60;;;19.50;99.90;;;20.14;100.00;97493.69;10473455;28;20225;-82
2023/09/18 10:29:05;;;;;;;4.72;2.50;;;19.50;99.90;;;19.95;100.00;97508.16;10465859;28;20227;-83
2023/09/18 10:34:11;;;;;;;3.80;2.50;;;19.40;99.90;;;20.10;100.00;97541.22;10461955;28;20229;-82
2023/09/18 10:39:19;;;;;;;3.17;2.10;;;19.50;99.90;;;20.08;100.00;97552.44;10465924;28;20247;-80
2023/09/18 10:44:24;;;;;;;4.32;2.30;;;19.50;99.90;;;20.01;100.00;97567.03;10450920;28;20239;-82
2023/09/18 10:49:29;;;;;;;5.07;2.45;;;19.40;99.90;;;19.99;100.00;97566.13;10459192;28;23127;-80
2023/09/18 10:54:34;;;;;;;3.15;2.00;;;19.40;99.90;;;19.76;100.00;97579.63;10458386;28;20216;-81
2023/09/18 10:59:45;;;;;;;2.25;2.00;;;19.20;99.90;;;19.65;100.00;97552.63;10454513;28;20248;-81
2023/09/18 11:04:55;;;;;;;3.03;2.08;;;19.00;99.90;;;19.38;100.00;97555.63;10454329;28;20217;-81
2023/09/18 11:09:58;;;;;;;3.00;2.45;;;18.90;99.90;;;19.35;100.00;97551.25;10465678;28;20270;-82
2023/09/18 11:15:03;;;;;;;2.38;2.17;;;18.80;99.90;;;19.40;100.00;97545.25;10450112;28;20240;-82
2023/09/18 11:20:12;;;;;;;3.25;2.30;;;18.80;99.90;;;19.29;100.00;97551.13;10446710;28;20252;-80
2023/09/18 11:25:37;;;;;;;4.30;2.33;;;18.80;99.90;;;19.31;100.00;97557.19;10455700;28;20314;-81
2023/09/18 11:30:50;;;;;;;2.72;2.30;;;18.80;99.90;;;19.31;100.00;97564.97;10454513;28;20310;-80
2023/09/18 11:35:55;;;;;;;5.75;2.30;;;18.70;99.90;;;19.21;100.00;97563.09;10447614;28;20247;-80
2023/09/18 11:40:58;;;;;;;3.65;2.50;;;18.60;99.90;;;19.20;100.00;97563.94;10444122;28;20224;-81
2023/09/18 11:46:03;;;;;;;4.43;2.28;;;18.60;99.90;;;19.27;100.00;97552.81;10462117;28;20224;-81
2023/09/18 11:51:11;;;;;;;4.35;3.38;;;18.60;99.90;;;19.18;100.00;97539.72;10436250;28;20312;-82
2023/09/18 11:56:17;;;;;;;4.70;2.70;;;18.60;99.90;;;18.83;100.00;97550.28;10450848;28;20290;-80
2023/09/18 12:01:22;;;;;;;2.85;2.20;;;18.30;99.90;;;18.74;100.00;97541.44;10450479;28;20494;-81
2023/09/18 12:06:27;;;;;;;1.95;1.80;;;18.20;99.90;;;18.66;100.00;97530.94;10455032;28;20312;-81
2023/09/18 12:11:30;;;;;;;3.05;1.95;;;18.30;99.90;;;18.65;100.00;97487.75;10453422;28;20280;-80
2023/09/18 12:16:39;;;;;;;1.75;1.60;;;18.20;99.90;;;18.55;100.00;97512.59;10447244;28;20621;-81
2023/09/18 12:21:46;;;;;;;4.50;2.00;;;18.20;99.90;;;18.70;100.00;97514.59;10455860;28;20275;-81
2023/09/18 12:26:53;;;;;;;2.53;2.08;;;18.30;99.90;;;18.93;100.00;97511.59;10445752;28;20583;-80
2023/09/18 12:31:59;;;;;;;4.40;2.38;;;18.40;99.90;;;19.16;100.00;97502.53;10450131;28;20221;-81
2023/09/18 12:37:06;;;;;;;3.10;2.20;;;18.50;99.90;;;19.18;100.00;97511.22;10449194;28;20284;-81
2023/09/18 12:42:09;;;;;;;2.67;1.75;;;18.60;99.90;;;19.36;100.00;97521.88;10453352;28;20221;-81
2023/09/18 12:47:13;;;;;;;1.77;1.63;;;18.70;99.90;;;19.31;100.00;97504.50;10453784;28;20720;-81
2023/09/18 12:52:23;;;;;;;3.33;1.70;;;18.70;99.90;;;19.36;100.00;97471.75;10466889;28;20232;-80
2023/09/18 12:57:28;;;;;;;2.17;1.52;;;18.70;99.90;;;19.35;100.00;97488.16;10457178;28;20316;-81
2023/09/18 13:02:31;;;;;;;2.45;1.70;;;18.70;99.90;;;19.40;100.00;97506.38;10463311;28;20255;-82
2023/09/18 13:07:45;;;;;;;3.13;1.83;;;18.80;99.90;;;19.51;100.00;97499.66;10461855;28;20305;-82
2023/09/18 13:12:52;;;;;;;2.67;2.03;;;19.00;99.90;;;19.91;100.00;97506.34;10459448;28;20717;-81
2023/09/18 13:18:00;;;;;;;2.20;2.00;;;19.30;99.90;;;20.19;100.00;97501.53;10471384;28;20225;-83
2023/09/18 13:23:05;;;;;;;2.65;2.00;;;19.60;99.90;;;20.42;100.00;97499.25;10458148;28;20292;-82
2023/09/18 13:28:11;;;;;;;2.70;1.77;;;19.80;99.90;;;20.54;100.00;97490.75;10465491;28;20674;-82
2023/09/18 13:33:18;;;;;;;2.00;1.90;;;19.90;99.90;;;20.69;99.41;97493.56;10461413;28;20228;-81
2023/09/18 13:38:23;;;;;;;3.35;1.80;;;20.00;99.90;;;20.77;93.13;97478.03;10473228;28;20235;-81
2023/09/18 13:43:32;;;;;;;2.20;1.95;;;20.00;99.90;;;20.93;90.85;97466.94;10474200;28;20239;-81
2023/09/18 13:48:36;;;;;;;3.78;2.70;;;20.20;99.90;;;20.96;92.34;97466.97;10464609;28;20743;-82
2023/09/18 13:53:41;;;;;;;4.28;2.10;;;20.30;99.90;;;21.13;93.09;97486.19;10461078;28;20232;-82
2023/09/18 13:58:44;;;;;;;4.53;2.00;;;20.40;99.90;;;21.31;90.96;97485.47;10458258;28;20236;-82
2023/09/18 14:03:48;;;;;;;2.33;1.38;;;20.60;99.90;;;21.42;85.22;97482.16;10462718;28;20229;-81
2023/09/18 14:08:54;;;;;;;1.48;1.38;;;20.70;99.90;;;21.20;87.31;97461.13;10464924;28;20230;-82
2023/09/18 14:13:58;;;;;;;2.08;1.52;;;20.60;99.90;;;21.29;86.53;97447.31;10457499;28;20240;-82
2023/09/18 14:19:01;;;;;;;1.83;1.70;;;20.60;99.90;;;21.35;86.25;97455.19;10450056;28;20218;-81
2023/09/18 14:24:07;;;;;;;1.60;1.50;;;20.70;99.90;;;21.56;84.66;97459.72;10450788;28;20263;-82
2023/09/18 14:29:11;;;;;;;2.97;1.55;;;20.90;99.90;;;21.52;87.37;97437.16;10450102;28;20247;-82
2023/09/18 14:34:15;;;;;;;2.95;1.55;;;20.80;99.90;;;21.72;85.55;97429.44;10448245;28;20240;-82
2023/09/18 14:39:19;;;;;;;2.38;2.00;;;20.90;99.90;;;21.86;82.56;97433.00;10444707;28;21012;-82
2023/09/18 14:44:23;;;;;;;3.22;1.70;;;21.00;99.90;;;21.85;83.52;97418.25;10444246;28;20582;-80
2023/09/18 14:49:27;;;;;;;3.00;1.40;;;21.10;99.90;;;21.85;82.98;97426.06;10453901;28;20239;-82
2023/09/18 14:54:32;;;;;;;2.25;1.35;;;21.00;99.90;;;21.66;84.35;97424.22;10432205;28;20229;-80
2023/09/18 14:59:35;;;;;;;1.83;1.73;;;20.80;99.90;;;21.67;82.77;97412.97;10444010;28;20232;-81
2023/09/18 15:04:45;;;;;;;2.65;1.77;;;20.90;99.90;;;21.61;85.44;97410.34;10440634;28;20220;-80
2023/09/18 15:09:49;;;;;;;2.30;1.70;;;20.90;99.90;;;21.48;87.54;97398.97;10456417;28;20232;-80
2023/09/18 15:14:52;;;;;;;3.63;2.10;;;20.70;99.90;;;21.62;86.87;97386.06;10458404;28;20729;-81
2023/09/18 15:19:56;;;;;;;2.53;1.98;;;20.70;99.90;;;21.69;82.93;97382.59;10450705;28;20225;-81
2023/09/18 15:25:01;;;;;;;2.45;2.00;;;20.80;99.90;;;21.53;82.81;97372.13;10449042;28;20217;-81
2023/09/18 15:30:06;;;;;;;1.85;1.73;;;20.70;99.90;;;21.42;84.32;97358.19;10445604;28;20232;-81
2023/09/18 15:35:10;;;;;;;2.38;1.90;;;20.60;99.90;;;21.48;83.25;97353.03;10445251;28;20252;-82
2023/09/18 15:40:16;;;;;;;2.38;1.65;;;20.60;99.90;;;21.41;84.40;97361.66;10469210;28;20236;-80
2023/09/18 15:45:19;;;;;;;3.38;2.30;;;20.50;99.90;;;21.46;83.96;97366.88;10447520;28;20228;-81
2023/09/18 15:50:23;;;;;;;2.20;1.60;;;20.50;99.90;;;21.42;85.07;97358.19;10450170;28;20406;-82
2023/09/18 15:55:28;;;;;;;2.25;1.65;;;20.50;99.90;;;21.48;84.08;97353.03;10450195;28;20280;-81
2023/09/18 16:00:31;;;;;;;2.63;2.03;;;20.50;99.90;;;21.47;83.38;97360.84;10452797;28;20230;-81
2023/09/18 16:05:38;;;;;;;1.85;1.73;;;20.60;99.90;;;21.48;81.79;97352.16;10444512;28;20253;-83
2023/09/18 16:10:43;;;;;;;2.15;1.67;;;20.60;99.90;;;21.38;83.71;97345.19;10442914;28;20228;-83
2023/09/18 16:15:46;;;;;;;2.15;1.70;;;20.50;99.90;;;21.47;80.25;97340.03;10460350;28;20305;-83
2023/09/18 16:20:50;;;;;;;2.42;1.77;;;20.50;99.90;;;21.23;82.55;97330.28;10462853;28;20232;-81
2023/09/18 16:25:54;;;;;;;1.75;1.65;;;20.40;99.90;;;21.06;84.46;97320.69;10470877;28;20280;-83
2023/09/18 16:31:04;;;;;;;1.95;1.70;;;20.20;99.90;;;21.00;86.23;97332.72;10462299;28;20229;-83
2023/09/18 16:36:08;;;;;;;1.90;1.67;;;20.10;99.90;;;20.87;88.02;97331.78;10460089;28;20264;-84
2023/09/18 16:41:12;;;;;;;3.35;2.00;;;19.90;99.90;;;20.67;88.86;97319.50;10466730;28;20229;-83
2023/09/18 16:46:16;;;;;;;3.28;2.30;;;19.80;99.90;;;20.47;89.92;97323.63;10448915;28;20883;-83
2023/09/18 16:51:20;;;;;;;2.10;1.90;;;19.60;99.90;;;20.31;92.01;97339.88;10456500;28;20228;-83
2023/09/18 16:56:25;;;;;;;2.45;2.00;;;19.40;99.90;;;20.26;93.16;97339.88;10434689;28;20233;-82
2023/09/18 17:01:28;;;;;;;2.40;1.95;;;19.40;99.90;;;20.27;94.80;97338.13;10445527;28;20233;-82
2023/09/18 17:06:34;;;;;;;3.63;2.30;;;19.40;99.90;;;20.14;95.63;97348.34;10432293;28;20232;-84
2023/09/18 17:11:39;;;;;;;2.25;1.92;;;19.30;99.90;;;20.01;95.64;97362.06;10424222;28;21009;-82
2023/09/18 17:16:43;;;;;;;3.92;2.15;;;19.10;99.90;;;19.91;96.61;97358.47;10440307;28;20638;-79
2023/09/18 17:21:46;;;;;;;3.40;2.20;;;19.00;99.90;;;19.74;96.65;97368.66;10428016;28;20300;-77
2023/09/18 17:26:51;;;;;;;3.05;2.42;;;18.80;99.90;;;19.83;97.23;97362.72;10419755;28;20399;-78
2023/09/18 17:31:54;;;;;;;3.03;2.72;;;18.80;99.90;;;19.55;99.98;97367.50;10452092;28;20228;-80
2023/09/18 17:36:58;;;;;;;2.78;2.28;;;18.70;99.90;;;19.49;100.00;97367.44;10451013;28;20332;-77
2023/09/18 17:42:03;;;;;;;2.75;2.50;;;18.60;99.90;;;19.20;100.00;97385.16;10458225;28;20229;-77
2023/09/18 17:47:06;;;;;;;4.18;2.50;;;18.40;99.90;;;19.14;100.00;97395.38;10458436;28;20212;-78
2023/09/18 17:52:11;;;;;;;3.80;2.40;;;18.30;99.90;;;19.10;100.00;97406.56;10450868;28;20229;-77
2023/09/18 17:57:15;;;;;;;3.45;2.65;;;18.30;99.90;;;19.00;100.00;97402.06;10432171;28;20311;-78
2023/09/18 18:02:19;;;;;;;2.67;2.40;;;18.10;99.90;;;18.95;100.00;97409.78;10441134;28;20217;-77
2023/09/18 18:07:22;;;;;;;3.63;2.70;;;18.10;99.90;;;18.85;100.00;97411.31;10450605;28;20233;-78
2023/09/18 18:12:27;;;;;;;2.97;2.53;;;18.10;99.90;;;18.75;100.00;97412.03;10446967;28;20221;-78
2023/09/18 18:17:30;;;;;;;3.25;2.47;;;17.90;99.90;;;18.54;100.00;97411.59;10432405;28;20757;-78
2023/09/18 18:22:35;;;;;;;3.95;2.55;;;17.70;99.90;;;18.35;100.00;97411.25;10436278;28;20627;-78
2023/09/18 18:27:39;;;;;;;2.80;2.55;;;17.60;99.90;;;18.41;100.00;97416.53;10440406;28;20733;-80
2023/09/18 18:32:42;;;;;;;3.42;2.42;;;17.60;99.90;;;18.32;100.00;97425.84;10445811;28;20216;-78
2023/09/18 18:37:48;;;;;;;2.35;2.15;;;17.50;99.90;;;18.33;100.00;97430.19;10441063;28;20311;-78
2023/09/18 18:42:52;;;;;;;3.70;2.58;;;17.50;99.90;;;18.23;100.00;97423.97;10436054;28;20228;-78
2023/09/18 18:47:57;;;;;;;3.72;2.40;;;17.50;99.90;;;18.21;100.00;97415.28;10426854;28;20222;-78
2023/09/18 18:53:01;;;;;;;2.05;1.85;;;17.40;99.90;;;18.12;100.00;97418.56;10427161;28;20743;-76
2023/09/18 18:58:06;;;;;;;3.47;1.95;;;17.30;99.90;;;18.07;100.00;97424.50;10433379;28;20225;-76
2023/09/18 19:03:09;;;;;;;2.72;2.35;;;17.30;99.90;;;18.07;100.00;97424.50;10435364;28;20278;-77
2023/09/18 19:08:13;;;;;;;3.05;2.45;;;17.20;99.90;;;18.00;100.00;97439.88;10432244;28;20319;-77
2023/09/18 19:13:18;;;;;;;3.05;2.20;;;17.20;99.90;;;18.01;100.00;97439.03;10427706;28;20521;-78
2023/09/18 19:18:21;;;;;;;3.50;2.22;;;17.20;99.90;;;17.94;100.00;97444.94;10434801;28;20239;-77
2023/09/18 19:23:26;;;;;;;3.10;2.20;;;17.10;99.90;;;17.86;100.00;97451.66;10435487;28;20241;-77
2023/09/18 19:28:31;;;;;;;3.17;2.40;;;17.00;99.90;;;17.69;100.00;97455.53;10429176;28;20229;-77
2023/09/18 19:33:37;;;;;;;3.00;2.40;;;16.80;99.90;;;17.69;100.00;97458.13;10437020;28;20233;-77
2023/09/18 19:38:42;;;;;;;4.68;2.78;;;16.90;99.90;;;17.62;100.00;97459.69;10430878;28;20589;-77
2023/09/18 19:43:47;;;;;;;3.53;2.55;;;16.80;99.90;;;17.55;100.00;97469.00;10436097;28;20221;-77
2023/09/18 19:48:50;;;;;;;3.15;2.67;;;16.80;99.90;;;17.61;100.00;97475.16;10433763;28;20220;-76
2023/09/18 19:53:54;;;;;;;3.13;2.50;;;16.90;99.90;;;17.63;100.00;97466.63;10434533;28;20230;-78
2023/09/18 19:59:00;;;;;;;3.08;2.88;;;16.90;99.90;;;17.68;100.00;97461.53;10427075;28;20245;-78
2023/09/18 20:04:04;;;;;;;4.53;4.13;;;16.90;99.90;;;17.65;100.00;97451.13;10422749;28;20232;-77
2023/09/18 20:09:09;;;;;;;3.08;2.75;;;17.00;99.90;;;17.53;100.00;97450.00;10413285;28;20762;-77
2023/09/18 20:14:14;;;;;;;2.75;2.50;;;16.90;99.90;;;17.21;100.00;97469.03;10429809;28;20232;-78
2023/09/18 20:19:31;;;;;;;5.13;3.67;;;16.70;99.90;;;17.39;100.00;97479.81;10433079;28;20214;-77
2023/09/18 20:24:34;;;;;;;2.92;2.67;;;16.80;99.90;;;17.55;100.00;97481.94;10432409;28;20232;-78
2023/09/18 20:29:39;;;;;;;4.38;2.72;;;16.90;99.90;;;17.45;100.00;97482.53;10418199;28;20622;-77
2023/09/18 20:34:43;;;;;;;3.90;2.70;;;16.80;99.90;;;17.36;100.00;97490.06;10415121;28;20221;-77
2023/09/18 20:39:46;;;;;;;2.95;2.53;;;16.80;99.90;;;17.30;100.00;97485.63;10411883;28;20371;-77
2023/09/18 20:44:52;;;;;;;3.47;3.17;;;16.80;99.90;;;17.28;100.00;97464.06;10415896;28;20648;-78
2023/09/18 20:49:56;;;;;;;4.05;3.10;;;16.70;99.90;;;17.29;100.00;97457.19;10422735;28;20279;-78
2023/09/18 20:55:00;;;;;;;4.55;3.10;;;16.70;99.90;;;17.21;100.00;97463.88;10418315;28;20790;-76
2023/09/18 21:00:06;;;;;;;3.20;2.90;;;16.60;99.90;;;17.08;100.00;97463.59;10438293;28;20221;-77
2023/09/18 21:05:10;;;;;;;3.38;2.92;;;16.50;99.90;;;16.97;100.00;97449.53;10417527;28;20226;-77